Time;durP1;ratioP1;P1;durP2;ratioP2;P2;SDS_P1;SDS_P2;PMS_P1;PMS_P2;Temp;Humidity;BMP_temperature;BMP_pressure;BME280_temperature;BME280_humidity;BME280_pressure;Samples;Min_cycle;Max_cycle;Signal;HPM_P1;HPM_P2
2022/03/12 15:37:11;;;;;;;5.32;2.75;;;15.90;58.90;;;;;;2299875;62;30011;-83
2022/03/12 15:39:38;;;;;;;3.28;2.67;;;15.90;58.80;;;;;;2283851;62;30103;-83
2022/03/12 15:42:06;;;;;;;6.57;3.45;;;15.90;59.80;;;;;;2291073;62;30648;-79
2022/03/12 15:44:32;;;;;;;12.18;3.38;;;16.00;60.50;;;;;;2291191;62;31235;-79
2022/03/12 15:46:58;;;;;;;4.97;3.72;;;16.00;61.30;;;;;;2291750;62;31081;-79
2022/03/12 15:49:24;;;;;;;9.60;4.55;;;16.10;61.50;;;;;;2291819;62;30271;-83
2022/03/12 15:51:50;;;;;;;3.97;3.55;;;16.00;61.50;;;;;;2291382;62;30295;-80
2022/03/12 15:54:16;;;;;;;4.35;3.40;;;16.10;61.80;;;;;;2291383;62;30201;-85
2022/03/12 15:56:45;;;;;;;3.60;3.30;;;16.10;62.20;;;;;;2287851;62;30430;-86
2022/03/12 15:59:11;;;;;;;4.40;3.17;;;16.10;62.30;;;;;;2291462;62;30281;-90
2022/03/12 16:01:38;;;;;;;5.05;3.70;;;16.20;62.20;;;;;;2276083;62;30272;-82
2022/03/12 16:04:09;;;;;;;5.32;3.30;;;16.20;62.30;;;;;;2282909;62;29982;-79
2022/03/12 16:06:37;;;;;;;5.70;3.60;;;16.40;62.40;;;;;;2280316;62;31966;-81
2022/03/12 16:09:05;;;;;;;3.80;3.03;;;16.90;62.00;;;;;;2291406;62;30711;-85
2022/03/12 16:11:37;;;;;;;;;;;17.30;61.20;;;;;;2284269;62;30471;-81
2022/03/12 16:14:03;;;;;;;4.53;3.20;;;17.80;58.80;;;;;;2291355;62;30963;-79
2022/03/12 16:16:29;;;;;;;3.72;3.20;;;18.20;59.60;;;;;;2291116;62;30053;-76
2022/03/12 16:18:55;;;;;;;4.03;3.60;;;18.50;58.70;;;;;;2283496;62;30231;-79
2022/03/12 16:21:21;;;;;;;3.35;3.05;;;18.60;58.10;;;;;;2291092;62;30098;-78
2022/03/12 16:23:47;;;;;;;4.07;2.60;;;18.70;58.00;;;;;;2290888;62;30087;-77
2022/03/12 16:26:13;;;;;;;3.97;3.05;;;18.70;58.00;;;;;;2290959;62;30115;-76
2022/03/12 16:28:39;;;;;;;3.10;2.80;;;18.60;57.80;;;;;;2291018;62;30013;-77
2022/03/12 16:31:06;;;;;;;3.10;2.80;;;18.50;58.00;;;;;;2290729;62;30239;-77
2022/03/12 16:33:32;;;;;;;3.05;2.65;;;18.30;58.10;;;;;;2283217;62;31502;-77
2022/03/12 16:36:01;;;;;;;3.67;2.88;;;18.20;58.40;;;;;;2290513;62;30524;-76
2022/03/12 16:38:27;;;;;;;6.25;3.20;;;18.10;58.60;;;;;;2283100;62;29988;-79
2022/03/12 16:40:58;;;;;;;3.80;3.20;;;18.10;59.00;;;;;;2283693;62;30233;-74
2022/03/12 16:43:24;;;;;;;4.95;3.63;;;18.10;58.70;;;;;;2290994;62;30111;-72
2022/03/12 16:45:52;;;;;;;4.28;3.60;;;18.00;58.50;;;;;;2283338;62;30204;-73
2022/03/12 16:48:18;;;;;;;6.10;4.00;;;17.90;58.40;;;;;;2286049;62;30333;-73
2022/03/12 16:50:44;;;;;;;4.50;3.45;;;17.80;58.30;;;;;;2285430;62;30135;-73
2022/03/12 16:53:10;;;;;;;5.40;3.13;;;17.70;58.40;;;;;;2285191;62;30732;-73
2022/03/12 16:55:36;;;;;;;3.67;3.33;;;17.70;58.40;;;;;;2285409;62;30269;-73
2022/03/12 16:58:04;;;;;;;4.43;3.42;;;17.60;58.50;;;;;;2285395;62;30122;-73
2022/03/12 17:00:32;;;;;;;4.93;3.50;;;17.60;58.50;;;;;;2285136;62;29985;-73
2022/03/12 17:02:59;;;;;;;3.63;3.33;;;17.50;58.50;;;;;;2274931;62;30197;-73
2022/03/12 17:05:26;;;;;;;3.45;3.15;;;17.40;58.50;;;;;;2269729;62;30265;-80
2022/03/12 17:07:52;;;;;;;3.50;3.17;;;17.40;58.60;;;;;;2273485;62;30401;-74
2022/03/12 17:10:21;;;;;;;4.00;3.10;;;17.30;58.60;;;;;;2282942;62;30245;-73
2022/03/12 17:12:50;;;;;;;4.45;3.00;;;17.20;58.60;;;;;;2269274;62;30196;-73
2022/03/12 17:15:20;;;;;;;6.10;3.58;;;17.20;58.70;;;;;;2276022;62;30167;-73
2022/03/12 17:17:48;;;;;;;3.67;3.35;;;17.10;58.60;;;;;;2282563;62;30236;-74
2022/03/12 17:20:18;;;;;;;5.13;3.67;;;17.10;58.70;;;;;;2267761;62;30282;-76
2022/03/12 17:22:46;;;;;;;4.82;3.35;;;17.00;58.70;;;;;;2276214;62;30263;-75
2022/03/12 17:25:13;;;;;;;5.43;3.95;;;17.00;58.60;;;;;;2283728;62;30122;-75
2022/03/12 17:27:41;;;;;;;3.60;3.30;;;16.90;58.70;;;;;;2278587;62;30054;-73
2022/03/12 17:30:11;;;;;;;5.55;3.65;;;16.80;58.70;;;;;;2268635;62;30983;-75
2022/03/12 17:32:43;;;;;;;5.80;3.88;;;16.80;58.70;;;;;;2268384;62;30192;-75
2022/03/12 17:35:10;;;;;;;4.65;3.60;;;16.80;58.50;;;;;;2275162;62;30151;-75
2022/03/12 17:37:36;;;;;;;3.20;2.90;;;16.70;58.80;;;;;;2275950;62;30827;-74
2022/03/12 17:40:04;;;;;;;5.03;3.03;;;16.70;59.00;;;;;;2275409;62;30704;-74
2022/03/12 17:42:35;;;;;;;2.55;2.35;;;16.70;59.10;;;;;;2275673;62;31027;-74
2022/03/12 17:45:02;;;;;;;2.67;2.47;;;16.70;59.20;;;;;;2268588;62;30416;-75
2022/03/12 17:47:30;;;;;;;2.70;2.50;;;16.70;59.20;;;;;;2276345;62;29991;-74
2022/03/12 17:49:58;;;;;;;3.50;3.05;;;16.70;59.30;;;;;;2268448;62;30437;-74
2022/03/12 17:52:24;;;;;;;12.15;3.20;;;16.60;59.30;;;;;;2267556;62;30837;-70
2022/03/12 17:54:50;;;;;;;3.88;3.10;;;16.60;59.40;;;;;;2274844;62;30572;-70
2022/03/12 17:57:16;;;;;;;2.50;2.30;;;16.60;59.50;;;;;;2274919;62;30393;-71
2022/03/12 17:59:42;;;;;;;8.23;2.42;;;16.60;59.60;;;;;;2274485;62;30223;-72
2022/03/12 18:02:08;;;;;;;4.00;2.78;;;16.60;59.70;;;;;;2275194;62;30190;-71
2022/03/12 18:04:43;;;;;;;2.75;2.40;;;16.70;59.80;;;;;;2274862;62;30337;-70
2022/03/12 18:07:12;;;;;;;4.20;2.40;;;16.60;59.70;;;;;;2280815;62;30838;-71
2022/03/12 18:09:39;;;;;;;5.43;2.38;;;16.60;59.80;;;;;;2282406;62;30272;-72
2022/03/12 18:12:12;;;;;;;7.57;3.47;;;16.60;59.90;;;;;;2276104;62;30828;-72
2022/03/12 18:14:39;;;;;;;5.57;4.07;;;16.60;59.50;;;;;;2276620;62;30207;-72
2022/03/12 18:17:05;;;;;;;5.20;3.50;;;16.50;59.50;;;;;;2282877;62;30395;-71
2022/03/12 18:19:31;;;;;;;4.38;3.47;;;16.50;59.70;;;;;;2281285;62;30201;-72
2022/03/12 18:22:00;;;;;;;3.28;2.67;;;16.50;60.00;;;;;;2279785;62;30193;-68
2022/03/12 18:24:28;;;;;;;6.53;2.88;;;16.50;60.20;;;;;;2276816;62;30612;-75
2022/03/12 18:26:54;;;;;;;2.65;2.42;;;16.40;60.30;;;;;;2274719;62;30567;-75
2022/03/12 18:29:23;;;;;;;4.45;2.60;;;16.50;60.60;;;;;;2283273;62;30061;-72
2022/03/12 18:31:49;;;;;;;8.82;2.83;;;16.60;60.60;;;;;;2283309;62;30098;-73
2022/03/12 18:34:15;;;;;;;3.40;2.70;;;16.60;60.60;;;;;;2283445;62;30415;-72
2022/03/12 18:36:42;;;;;;;3.15;2.40;;;16.70;60.80;;;;;;2283116;62;30315;-70
2022/03/12 18:39:10;;;;;;;2.50;2.30;;;16.80;60.60;;;;;;2274888;62;30898;-70
2022/03/12 18:41:41;;;;;;;5.63;2.25;;;16.90;60.60;;;;;;2275129;62;30757;-69
2022/03/12 18:44:13;;;;;;;3.47;2.30;;;17.00;60.80;;;;;;2275195;62;30267;-70
2022/03/12 18:46:39;;;;;;;2.10;1.95;;;17.10;61.10;;;;;;2274799;62;30050;-72
2022/03/12 18:49:08;;;;;;;2.17;2.00;;;17.20;60.80;;;;;;2270639;62;30361;-72
2022/03/12 18:51:36;;;;;;;2.33;2.03;;;17.30;60.80;;;;;;2276128;62;30071;-73
2022/03/12 18:54:04;;;;;;;9.02;2.65;;;17.40;60.80;;;;;;2275117;62;30197;-72
2022/03/12 18:56:31;;;;;;;2.13;1.80;;;17.40;60.60;;;;;;2283274;62;30067;-71
2022/03/12 18:58:57;;;;;;;2.10;1.90;;;17.50;60.50;;;;;;2275764;62;30308;-71
2022/03/12 19:01:23;;;;;;;2.00;1.80;;;17.50;60.50;;;;;;2275688;62;31106;-70
2022/03/12 19:03:50;;;;;;;2.00;1.90;;;17.60;60.40;;;;;;2280280;62;30417;-70
2022/03/12 19:06:16;;;;;;;2.80;1.80;;;17.60;60.60;;;;;;2283235;62;30314;-70
2022/03/12 19:08:41;;;;;;;4.72;2.05;;;17.60;60.50;;;;;;2283416;62;30048;-70
2022/03/12 19:11:07;;;;;;;2.00;1.90;;;17.70;60.60;;;;;;2283158;62;30704;-70
2022/03/12 19:13:36;;;;;;;2.25;1.83;;;17.70;60.60;;;;;;2281720;62;30430;-70
2022/03/12 19:16:03;;;;;;;2.28;1.77;;;17.70;60.50;;;;;;2273717;62;33090;-71
2022/03/12 19:18:29;;;;;;;1.60;1.50;;;17.70;60.50;;;;;;2270160;62;30118;-70
2022/03/12 19:20:55;;;;;;;12.80;3.45;;;17.70;60.50;;;;;;2274944;62;30073;-71
2022/03/12 19:23:25;;;;;;;1.83;1.73;;;17.80;60.60;;;;;;2275065;62;30438;-71
2022/03/12 19:25:51;;;;;;;1.95;1.77;;;17.80;60.40;;;;;;2267956;62;30320;-71
2022/03/12 19:28:17;;;;;;;2.05;1.65;;;17.80;60.40;;;;;;2266566;62;30479;-71
2022/03/12 19:30:45;;;;;;;1.95;1.70;;;17.80;60.40;;;;;;2282489;62;31005;-73
2022/03/12 19:33:17;;;;;;;1.95;1.80;;;17.90;60.40;;;;;;2275232;62;31755;-72
2022/03/12 19:35:43;;;;;;;2.50;2.10;;;17.90;60.50;;;;;;2281970;62;30630;-73
2022/03/12 19:38:09;;;;;;;9.60;2.92;;;17.90;60.40;;;;;;2275482;62;30287;-73
2022/03/12 19:40:36;;;;;;;3.08;2.05;;;17.90;60.50;;;;;;2275820;62;30923;-72
2022/03/12 19:43:03;;;;;;;1.90;1.80;;;17.90;60.40;;;;;;2282176;62;30888;-73
2022/03/12 19:45:35;;;;;;;1.70;1.60;;;17.90;60.40;;;;;;2283135;62;29993;-73
2022/03/12 19:48:04;;;;;;;2.38;1.80;;;18.00;60.50;;;;;;2282541;62;29978;-73
2022/03/12 19:50:31;;;;;;;1.65;1.55;;;18.00;60.50;;;;;;2283081;62;30568;-72
2022/03/12 19:52:57;;;;;;;1.98;1.77;;;18.00;60.50;;;;;;2283043;62;30634;-73
2022/03/12 19:55:22;;;;;;;3.20;1.80;;;18.00;60.50;;;;;;2282741;62;30124;-73
2022/03/12 19:57:49;;;;;;;1.90;1.80;;;18.00;60.40;;;;;;2275640;62;30060;-73
2022/03/12 20:00:15;;;;;;;1.88;1.77;;;18.00;60.40;;;;;;2282877;62;30314;-73
2022/03/12 20:02:43;;;;;;;1.90;1.77;;;18.00;60.50;;;;;;2282908;62;30267;-73
2022/03/12 20:05:09;;;;;;;2.03;1.88;;;18.00;60.50;;;;;;2282975;62;30179;-73
2022/03/12 20:07:35;;;;;;;1.63;1.52;;;18.00;60.50;;;;;;2281128;62;30031;-73
2022/03/12 20:10:01;;;;;;;1.40;1.40;;;18.10;60.50;;;;;;2274635;62;30859;-73
2022/03/12 20:12:27;;;;;;;2.00;1.90;;;18.10;60.50;;;;;;2274541;62;31062;-73
2022/03/12 20:14:54;;;;;;;2.28;2.08;;;18.10;60.40;;;;;;2267292;62;30079;-71
2022/03/12 20:17:22;;;;;;;2.25;2.05;;;18.10;60.40;;;;;;2260409;62;30806;-71
2022/03/12 20:19:48;;;;;;;2.50;2.30;;;18.00;60.30;;;;;;2267267;62;30574;-72
2022/03/12 20:22:18;;;;;;;2.28;1.70;;;17.90;60.30;;;;;;2267644;62;30072;-71
2022/03/12 20:24:46;;;;;;;1.60;1.50;;;17.90;60.40;;;;;;2275898;62;29959;-71
2022/03/12 20:27:20;;;;;;;1.80;1.70;;;17.90;60.50;;;;;;2275808;62;30529;-72
2022/03/12 20:29:50;;;;;;;1.45;1.45;;;17.90;60.50;;;;;;2268964;62;30237;-74
2022/03/12 20:32:19;;;;;;;2.05;1.95;;;17.90;60.70;;;;;;2268227;62;30591;-74
2022/03/12 20:34:46;;;;;;;2.00;1.90;;;17.90;60.60;;;;;;2261858;62;30722;-74
2022/03/12 20:37:15;;;;;;;2.75;2.00;;;18.00;60.70;;;;;;2266958;62;30176;-74
2022/03/12 20:39:43;;;;;;;2.00;1.90;;;18.00;60.70;;;;;;2267274;62;31050;-74
2022/03/12 20:42:10;;;;;;;2.03;1.92;;;17.90;60.70;;;;;;2272196;62;30531;-74
2022/03/12 20:44:36;;;;;;;2.45;2.25;;;17.90;60.60;;;;;;2274204;62;30279;-74
2022/03/12 20:47:03;;;;;;;2.47;2.28;;;17.90;60.50;;;;;;2272594;62;30417;-74
2022/03/12 20:49:29;;;;;;;2.65;2.45;;;17.80;60.50;;;;;;2274283;62;31063;-73
2022/03/12 20:51:55;;;;;;;2.00;1.90;;;17.80;60.60;;;;;;2275338;62;30134;-73
2022/03/12 20:54:21;;;;;;;2.28;2.08;;;17.70;60.60;;;;;;2275803;62;30675;-73
2022/03/12 20:56:47;;;;;;;2.00;1.90;;;17.60;60.90;;;;;;2269264;62;32790;-73
2022/03/12 20:59:15;;;;;;;2.85;2.35;;;17.60;61.00;;;;;;2267498;62;30179;-73
2022/03/12 21:01:47;;;;;;;2.17;2.00;;;17.70;61.10;;;;;;2267578;62;30838;-73
2022/03/12 21:04:19;;;;;;;4.28;2.28;;;17.70;61.10;;;;;;2274808;62;30197;-73
2022/03/12 21:06:45;;;;;;;7.22;2.58;;;17.70;61.20;;;;;;2265885;62;30961;-70
2022/03/12 21:09:17;;;;;;;4.50;2.60;;;17.70;61.10;;;;;;2267569;62;30122;-70
2022/03/12 21:11:46;;;;;;;3.10;2.80;;;17.60;60.60;;;;;;2269320;62;30232;-69
2022/03/12 21:14:16;;;;;;;3.05;2.20;;;17.60;60.60;;;;;;2275399;62;30121;-70
2022/03/12 21:16:42;;;;;;;2.50;2.30;;;17.50;60.70;;;;;;2275586;62;30266;-70
2022/03/12 21:19:08;;;;;;;2.60;2.40;;;17.50;60.50;;;;;;2275723;62;30700;-69
2022/03/12 21:21:34;;;;;;;2.53;2.28;;;17.50;60.60;;;;;;2275122;62;30607;-69
2022/03/12 21:24:00;;;;;;;2.63;2.40;;;17.40;60.80;;;;;;2275127;62;30003;-70
2022/03/12 21:26:27;;;;;;;2.83;2.55;;;17.40;60.90;;;;;;2274934;62;30239;-69
2022/03/12 21:28:54;;;;;;;2.67;2.42;;;17.40;61.00;;;;;;2275528;62;30218;-69
2022/03/12 21:31:21;;;;;;;3.00;2.70;;;17.40;61.10;;;;;;2275676;62;30569;-70
2022/03/12 21:33:47;;;;;;;4.70;2.80;;;17.40;61.20;;;;;;2275404;62;30046;-69
2022/03/12 21:36:38;;;;;;;3.30;2.70;;;17.40;61.30;;;;;;2274254;62;30156;-70
2022/03/12 21:39:05;;;;;;;2.47;2.27;;;17.40;62.00;;;;;;2275570;62;31064;-70
2022/03/12 21:41:31;;;;;;;3.65;2.45;;;17.30;61.30;;;;;;2275136;62;30653;-71
2022/03/12 21:43:57;;;;;;;2.90;2.60;;;17.30;61.50;;;;;;2275065;62;30397;-69
2022/03/12 21:46:23;;;;;;;3.00;2.67;;;17.40;61.80;;;;;;2275548;62;30242;-69
2022/03/12 21:48:51;;;;;;;2.50;2.30;;;17.30;62.50;;;;;;2275342;62;31954;-69
2022/03/12 21:51:20;;;;;;;3.30;2.50;;;17.40;61.90;;;;;;2274690;62;30287;-69
2022/03/12 21:53:46;;;;;;;2.88;2.60;;;17.40;62.00;;;;;;2275172;62;30765;-69
2022/03/12 21:56:15;;;;;;;2.85;2.65;;;17.40;62.00;;;;;;2273516;62;30539;-68
2022/03/12 21:58:40;;;;;;;3.00;2.63;;;17.40;62.00;;;;;;2273563;62;30938;-69
2022/03/12 22:01:07;;;;;;;3.35;2.83;;;17.40;62.00;;;;;;2274722;62;30482;-68
2022/03/12 22:03:34;;;;;;;2.95;2.60;;;17.40;62.00;;;;;;2274665;62;30691;-69
2022/03/12 22:06:00;;;;;;;2.60;2.40;;;17.40;62.10;;;;;;2274904;62;30280;-68
2022/03/12 22:08:25;;;;;;;2.80;2.50;;;17.40;62.10;;;;;;2275493;62;30870;-69
2022/03/12 22:10:51;;;;;;;2.67;2.47;;;17.40;62.20;;;;;;2275184;62;29952;-68
2022/03/12 22:13:19;;;;;;;2.60;2.40;;;17.40;62.20;;;;;;2275388;62;30034;-68
2022/03/12 22:15:48;;;;;;;2.85;2.65;;;17.50;62.30;;;;;;2275166;62;30140;-67
2022/03/12 22:18:15;;;;;;;3.58;2.88;;;17.50;62.30;;;;;;2266915;62;31144;-67
2022/03/12 22:20:41;;;;;;;3.13;2.92;;;17.50;62.40;;;;;;2266667;62;30101;-68
2022/03/12 22:23:08;;;;;;;4.20;2.58;;;17.50;62.30;;;;;;2266328;62;30659;-69
2022/03/12 22:25:35;;;;;;;2.63;2.42;;;17.50;62.20;;;;;;2272275;62;29982;-68
2022/03/12 22:28:02;;;;;;;2.45;2.30;;;17.40;62.20;;;;;;2274551;62;30216;-69
2022/03/12 22:30:29;;;;;;;2.60;2.40;;;17.40;62.30;;;;;;2274510;62;30928;-68
2022/03/12 22:32:56;;;;;;;2.95;2.70;;;17.40;62.40;;;;;;2267982;62;30774;-70
2022/03/12 22:35:22;;;;;;;2.60;2.40;;;17.40;62.40;;;;;;2274622;62;30679;-70
2022/03/12 22:37:50;;;;;;;3.60;3.30;;;17.50;62.50;;;;;;2266725;62;30903;-71
2022/03/12 22:40:18;;;;;;;2.60;2.40;;;17.50;62.50;;;;;;2267305;62;30621;-70
2022/03/12 22:42:49;;;;;;;2.95;2.75;;;17.50;62.40;;;;;;2259957;62;30318;-71
2022/03/12 22:45:17;;;;;;;2.60;2.45;;;17.50;62.40;;;;;;2253389;62;30091;-70
2022/03/12 22:47:43;;;;;;;2.72;2.53;;;17.40;62.40;;;;;;2266661;62;31024;-71
2022/03/12 22:50:20;;;;;;;3.00;2.50;;;17.40;62.50;;;;;;2266369;62;30725;-76
2022/03/12 22:52:47;;;;;;;4.60;3.10;;;17.40;62.60;;;;;;2267066;62;30241;-75
2022/03/12 22:55:14;;;;;;;3.40;2.75;;;17.30;62.80;;;;;;2267213;62;30779;-75
2022/03/12 22:57:40;;;;;;;3.13;2.78;;;17.40;62.90;;;;;;2259866;62;31442;-74
2022/03/12 23:00:44;;;;;;;2.83;2.63;;;17.40;63.00;;;;;;2266907;62;30659;-76
2022/03/12 23:03:17;;;;;;;4.53;2.95;;;17.40;63.10;;;;;;2266833;62;30358;-73
2022/03/12 23:11:12;;;;;;;3.13;2.92;;;17.40;62.90;;;;;;2266914;62;30758;-75
2022/03/12 23:14:24;;;;;;;3.22;2.70;;;17.30;62.80;;;;;;2273370;62;30252;-72
2022/03/12 23:16:50;;;;;;;3.58;3.22;;;17.30;62.90;;;;;;2254835;62;30407;-73
2022/03/12 23:19:25;;;;;;;3.38;3.08;;;17.30;63.00;;;;;;2268016;62;31361;-74
